sensor_id;sensor_type;location;lat;lon;timestamp;pressure;altitude;pressure_sealevel;temperature
41593;BMP180;28026;48.562;14.440;2024-03-02T00:02:13;92733.00;;;13.50
41593;BMP180;28026;48.562;14.440;2024-03-02T00:04:45;92727.00;;;13.50
41593;BMP180;28026;48.562;14.440;2024-03-02T00:07:16;92740.00;;;13.40
41593;BMP180;28026;48.562;14.440;2024-03-02T00:09:47;92726.00;;;13.40
41593;BMP180;28026;48.562;14.440;2024-03-02T00:12:17;92725.00;;;13.50
41593;BMP180;28026;48.562;14.440;2024-03-02T00:14:49;92726.00;;;13.50
41593;BMP180;28026;48.562;14.440;2024-03-02T00:17:24;92722.00;;;13.50
41593;BMP180;28026;48.562;14.440;2024-03-02T00:19:58;92720.00;;;13.40
41593;BMP180;28026;48.562;14.440;2024-03-02T00:22:29;92712.00;;;13.40
41593;BMP180;28026;48.562;14.440;2024-03-02T00:25:00;92721.00;;;13.30
41593;BMP180;28026;48.562;14.440;2024-03-02T00:27:31;92712.00;;;13.20
41593;BMP180;28026;48.562;14.440;2024-03-02T00:30:31;92715.00;;;13.30
41593;BMP180;28026;48.562;14.440;2024-03-02T00:33:12;92724.00;;;13.20
41593;BMP180;28026;48.562;14.440;2024-03-02T00:35:47;92719.00;;;13.20
41593;BMP180;28026;48.562;14.440;2024-03-02T00:38:18;92729.00;;;13.20
41593;BMP180;28026;48.562;14.440;2024-03-02T00:40:49;92721.00;;;13.10
41593;BMP180;28026;48.562;14.440;2024-03-02T00:46:19;92727.00;;;13.10
41593;BMP180;28026;48.562;14.440;2024-03-02T00:48:54;92727.00;;;13.10
41593;BMP180;28026;48.562;14.440;2024-03-02T00:51:31;92725.00;;;13.00
41593;BMP180;28026;48.562;14.440;2024-03-02T00:54:07;92721.00;;;13.00
41593;BMP180;28026;48.562;14.440;2024-03-02T00:56:41;92722.00;;;13.00
41593;BMP180;28026;48.562;14.440;2024-03-02T00:59:12;92725.00;;;12.90
41593;BMP180;28026;48.562;14.440;2024-03-02T01:01:43;92710.00;;;13.00
41593;BMP180;28026;48.562;14.440;2024-03-02T01:04:14;92713.00;;;13.00
41593;BMP180;28026;48.562;14.440;2024-03-02T01:06:46;92706.00;;;13.00
41593;BMP180;28026;48.562;14.440;2024-03-02T01:09:17;92708.00;;;13.00
41593;BMP180;28026;48.562;14.440;2024-03-02T01:11:48;92701.00;;;13.00
41593;BMP180;28026;48.562;14.440;2024-03-02T01:14:19;92699.00;;;13.00
41593;BMP180;28026;48.562;14.440;2024-03-02T01:16:49;92704.00;;;13.00
41593;BMP180;28026;48.562;14.440;2024-03-02T01:19:20;92703.00;;;13.00
41593;BMP180;28026;48.562;14.440;2024-03-02T01:21:51;92700.00;;;13.00
41593;BMP180;28026;48.562;14.440;2024-03-02T01:24:22;92701.00;;;13.10
41593;BMP180;28026;48.562;14.440;2024-03-02T01:26:53;92706.00;;;13.00
41593;BMP180;28026;48.562;14.440;2024-03-02T01:29:23;92697.00;;;13.00
41593;BMP180;28026;48.562;14.440;2024-03-02T01:31:54;92702.00;;;13.00
41593;BMP180;28026;48.562;14.440;2024-03-02T01:34:25;92701.00;;;13.00
41593;BMP180;28026;48.562;14.440;2024-03-02T01:36:56;92702.00;;;13.00
41593;BMP180;28026;48.562;14.440;2024-03-02T01:39:27;92696.00;;;13.00
41593;BMP180;28026;48.562;14.440;2024-03-02T01:41:57;92699.00;;;12.90
41593;BMP180;28026;48.562;14.440;2024-03-02T01:44:28;92704.00;;;12.90
41593;BMP180;28026;48.562;14.440;2024-03-02T01:46:59;92705.00;;;12.90
41593;BMP180;28026;48.562;14.440;2024-03-02T01:49:30;92701.00;;;12.90
41593;BMP180;28026;48.562;14.440;2024-03-02T01:52:01;92698.00;;;12.90
41593;BMP180;28026;48.562;14.440;2024-03-02T01:54:32;92701.00;;;12.80
41593;BMP180;28026;48.562;14.440;2024-03-02T01:57:03;92704.00;;;12.90
41593;BMP180;28026;48.562;14.440;2024-03-02T01:59:34;92709.00;;;12.80
41593;BMP180;28026;48.562;14.440;2024-03-02T02:02:05;92706.00;;;12.80
41593;BMP180;28026;48.562;14.440;2024-03-02T02:04:36;92694.00;;;12.70
41593;BMP180;28026;48.562;14.440;2024-03-02T02:07:06;92705.00;;;12.70
41593;BMP180;28026;48.562;14.440;2024-03-02T02:09:37;92699.00;;;12.60
41593;BMP180;28026;48.562;14.440;2024-03-02T02:12:11;92702.00;;;12.60
41593;BMP180;28026;48.562;14.440;2024-03-02T02:14:49;92716.00;;;12.50
41593;BMP180;28026;48.562;14.440;2024-03-02T02:17:20;92702.00;;;12.40
41593;BMP180;28026;48.562;14.440;2024-03-02T02:19:51;92708.00;;;12.40
41593;BMP180;28026;48.562;14.440;2024-03-02T02:22:22;92705.00;;;12.40
41593;BMP180;28026;48.562;14.440;2024-03-02T02:24:53;92707.00;;;12.40
41593;BMP180;28026;48.562;14.440;2024-03-02T02:27:24;92701.00;;;12.50
41593;BMP180;28026;48.562;14.440;2024-03-02T02:29:55;92707.00;;;12.40
41593;BMP180;28026;48.562;14.440;2024-03-02T02:32:26;92703.00;;;12.50
41593;BMP180;28026;48.562;14.440;2024-03-02T02:34:57;92701.00;;;12.50
41593;BMP180;28026;48.562;14.440;2024-03-02T02:37:28;92696.00;;;12.50
41593;BMP180;28026;48.562;14.440;2024-03-02T02:39:59;92701.00;;;12.50
41593;BMP180;28026;48.562;14.440;2024-03-02T02:42:30;92694.00;;;12.60
41593;BMP180;28026;48.562;14.440;2024-03-02T02:45:01;92692.00;;;12.60
41593;BMP180;28026;48.562;14.440;2024-03-02T02:47:32;92688.00;;;12.60
41593;BMP180;28026;48.562;14.440;2024-03-02T02:50:07;92679.00;;;12.50
41593;BMP180;28026;48.562;14.440;2024-03-02T02:52:40;92683.00;;;12.50
41593;BMP180;28026;48.562;14.440;2024-03-02T02:55:12;92677.00;;;12.40
41593;BMP180;28026;48.562;14.440;2024-03-02T02:57:44;92680.00;;;12.30
41593;BMP180;28026;48.562;14.440;2024-03-02T03:00:16;92680.00;;;12.30
41593;BMP180;28026;48.562;14.440;2024-03-02T03:02:49;92674.00;;;12.20
41593;BMP180;28026;48.562;14.440;2024-03-02T03:05:20;92673.00;;;12.20
41593;BMP180;28026;48.562;14.440;2024-03-02T03:07:51;92667.00;;;12.20
41593;BMP180;28026;48.562;14.440;2024-03-02T03:10:22;92673.00;;;12.20
41593;BMP180;28026;48.562;14.440;2024-03-02T03:12:54;92675.00;;;12.10
41593;BMP180;28026;48.562;14.440;2024-03-02T03:15:26;92675.00;;;12.10
41593;BMP180;28026;48.562;14.440;2024-03-02T03:17:57;92677.00;;;12.10
41593;BMP180;28026;48.562;14.440;2024-03-02T03:20:28;92677.00;;;12.00
41593;BMP180;28026;48.562;14.440;2024-03-02T03:22:59;92681.00;;;12.00
41593;BMP180;28026;48.562;14.440;2024-03-02T03:25:30;92672.00;;;12.10
41593;BMP180;28026;48.562;14.440;2024-03-02T03:28:01;92679.00;;;12.10
41593;BMP180;28026;48.562;14.440;2024-03-02T03:30:32;92670.00;;;12.20
41593;BMP180;28026;48.562;14.440;2024-03-02T03:33:03;92682.00;;;12.20
41593;BMP180;28026;48.562;14.440;2024-03-02T03:35:36;92677.00;;;12.30
41593;BMP180;28026;48.562;14.440;2024-03-02T03:38:08;92686.00;;;12.40
41593;BMP180;28026;48.562;14.440;2024-03-02T03:40:38;92684.00;;;12.40
41593;BMP180;28026;48.562;14.440;2024-03-02T03:43:09;92671.00;;;12.40
41593;BMP180;28026;48.562;14.440;2024-03-02T03:45:40;92677.00;;;12.50
41593;BMP180;28026;48.562;14.440;2024-03-02T03:48:12;92681.00;;;12.60
41593;BMP180;28026;48.562;14.440;2024-03-02T03:50:43;92676.00;;;12.60
41593;BMP180;28026;48.562;14.440;2024-03-02T03:53:13;92672.00;;;12.60
41593;BMP180;28026;48.562;14.440;2024-03-02T03:55:45;92680.00;;;12.60
41593;BMP180;28026;48.562;14.440;2024-03-02T03:58:17;92675.00;;;12.70
41593;BMP180;28026;48.562;14.440;2024-03-02T04:00:49;92684.00;;;12.70
41593;BMP180;28026;48.562;14.440;2024-03-02T04:03:20;92678.00;;;12.60
41593;BMP180;28026;48.562;14.440;2024-03-02T04:05:50;92679.00;;;12.70
41593;BMP180;28026;48.562;14.440;2024-03-02T04:08:21;92681.00;;;12.70
41593;BMP180;28026;48.562;14.440;2024-03-02T04:10:52;92688.00;;;12.70
41593;BMP180;28026;48.562;14.440;2024-03-02T04:13:23;92682.00;;;12.70
41593;BMP180;28026;48.562;14.440;2024-03-02T04:15:54;92688.00;;;12.70
41593;BMP180;28026;48.562;14.440;2024-03-02T04:18:25;92687.00;;;12.70
41593;BMP180;28026;48.562;14.440;2024-03-02T04:20:56;92684.00;;;12.70
41593;BMP180;28026;48.562;14.440;2024-03-02T04:23:26;92688.00;;;12.70
41593;BMP180;28026;48.562;14.440;2024-03-02T04:25:57;92683.00;;;12.70
41593;BMP180;28026;48.562;14.440;2024-03-02T04:28:28;92686.00;;;12.70
41593;BMP180;28026;48.562;14.440;2024-03-02T04:30:59;92688.00;;;12.70
41593;BMP180;28026;48.562;14.440;2024-03-02T04:33:30;92681.00;;;12.70
41593;BMP180;28026;48.562;14.440;2024-03-02T04:36:01;92686.00;;;12.80
41593;BMP180;28026;48.562;14.440;2024-03-02T04:38:31;92683.00;;;12.80
41593;BMP180;28026;48.562;14.440;2024-03-02T04:41:03;92678.00;;;12.80
41593;BMP180;28026;48.562;14.440;2024-03-02T04:43:36;92692.00;;;12.90
41593;BMP180;28026;48.562;14.440;2024-03-02T04:46:07;92685.00;;;12.80
41593;BMP180;28026;48.562;14.440;2024-03-02T04:48:38;92689.00;;;12.80
41593;BMP180;28026;48.562;14.440;2024-03-02T04:51:09;92675.00;;;12.80
41593;BMP180;28026;48.562;14.440;2024-03-02T04:53:39;92687.00;;;12.70
41593;BMP180;28026;48.562;14.440;2024-03-02T04:56:10;92689.00;;;12.70
41593;BMP180;28026;48.562;14.440;2024-03-02T04:59:10;92690.00;;;12.60
41593;BMP180;28026;48.562;14.440;2024-03-02T05:01:41;92685.00;;;12.60
41593;BMP180;28026;48.562;14.440;2024-03-02T05:04:12;92691.00;;;12.60
41593;BMP180;28026;48.562;14.440;2024-03-02T05:06:42;92685.00;;;12.60
41593;BMP180;28026;48.562;14.440;2024-03-02T05:09:13;92700.00;;;12.60
41593;BMP180;28026;48.562;14.440;2024-03-02T05:11:44;92690.00;;;12.80
41593;BMP180;28026;48.562;14.440;2024-03-02T05:14:26;92685.00;;;12.80
41593;BMP180;28026;48.562;14.440;2024-03-02T05:16:57;92696.00;;;12.90
41593;BMP180;28026;48.562;14.440;2024-03-02T05:19:28;92682.00;;;13.00
41593;BMP180;28026;48.562;14.440;2024-03-02T05:21:59;92694.00;;;13.10
41593;BMP180;28026;48.562;14.440;2024-03-02T05:24:30;92695.00;;;13.10
41593;BMP180;28026;48.562;14.440;2024-03-02T05:27:00;92699.00;;;13.20
41593;BMP180;28026;48.562;14.440;2024-03-02T05:29:31;92690.00;;;13.20
41593;BMP180;28026;48.562;14.440;2024-03-02T05:32:02;92702.00;;;13.30
41593;BMP180;28026;48.562;14.440;2024-03-02T05:34:33;92696.00;;;13.30
41593;BMP180;28026;48.562;14.440;2024-03-02T05:37:05;92703.00;;;13.30
41593;BMP180;28026;48.562;14.440;2024-03-02T05:39:37;92697.00;;;13.40
41593;BMP180;28026;48.562;14.440;2024-03-02T05:42:07;92704.00;;;13.40
41593;BMP180;28026;48.562;14.440;2024-03-02T05:44:39;92705.00;;;13.40
41593;BMP180;28026;48.562;14.440;2024-03-02T05:47:10;92703.00;;;13.50
41593;BMP180;28026;48.562;14.440;2024-03-02T05:49:40;92699.00;;;13.50
41593;BMP180;28026;48.562;14.440;2024-03-02T05:52:11;92710.00;;;13.50
41593;BMP180;28026;48.562;14.440;2024-03-02T05:54:42;92704.00;;;13.50
41593;BMP180;28026;48.562;14.440;2024-03-02T05:57:13;92714.00;;;13.50
41593;BMP180;28026;48.562;14.440;2024-03-02T05:59:51;92708.00;;;13.40
41593;BMP180;28026;48.562;14.440;2024-03-02T06:02:22;92710.00;;;13.40
41593;BMP180;28026;48.562;14.440;2024-03-02T06:04:56;92706.00;;;13.40
41593;BMP180;28026;48.562;14.440;2024-03-02T06:07:27;92717.00;;;13.40
41593;BMP180;28026;48.562;14.440;2024-03-02T06:09:58;92731.00;;;13.40
41593;BMP180;28026;48.562;14.440;2024-03-02T06:12:31;92722.00;;;13.40
41593;BMP180;28026;48.562;14.440;2024-03-02T06:15:02;92729.00;;;13.40
41593;BMP180;28026;48.562;14.440;2024-03-02T06:17:37;92730.00;;;13.40
41593;BMP180;28026;48.562;14.440;2024-03-02T06:20:09;92734.00;;;13.30
41593;BMP180;28026;48.562;14.440;2024-03-02T06:22:40;92733.00;;;13.30
41593;BMP180;28026;48.562;14.440;2024-03-02T06:25:11;92731.00;;;13.20
41593;BMP180;28026;48.562;14.440;2024-03-02T06:27:41;92743.00;;;13.20
41593;BMP180;28026;48.562;14.440;2024-03-02T06:30:12;92730.00;;;13.20
41593;BMP180;28026;48.562;14.440;2024-03-02T06:32:43;92738.00;;;13.20
41593;BMP180;28026;48.562;14.440;2024-03-02T06:35:14;92747.00;;;13.30
41593;BMP180;28026;48.562;14.440;2024-03-02T06:37:45;92749.00;;;13.30
41593;BMP180;28026;48.562;14.440;2024-03-02T06:40:16;92755.00;;;13.30
41593;BMP180;28026;48.562;14.440;2024-03-02T06:42:46;92752.00;;;13.40
41593;BMP180;28026;48.562;14.440;2024-03-02T06:45:17;92742.00;;;13.40
41593;BMP180;28026;48.562;14.440;2024-03-02T06:47:48;92748.00;;;13.50
41593;BMP180;28026;48.562;14.440;2024-03-02T06:50:19;92758.00;;;13.50
41593;BMP180;28026;48.562;14.440;2024-03-02T06:52:50;92751.00;;;13.50
41593;BMP180;28026;48.562;14.440;2024-03-02T06:55:21;92754.00;;;13.50
41593;BMP180;28026;48.562;14.440;2024-03-02T06:57:52;92762.00;;;13.60
41593;BMP180;28026;48.562;14.440;2024-03-02T07:00:23;92762.00;;;13.60
41593;BMP180;28026;48.562;14.440;2024-03-02T07:02:54;92759.00;;;13.60
41593;BMP180;28026;48.562;14.440;2024-03-02T07:05:25;92766.00;;;13.70
41593;BMP180;28026;48.562;14.440;2024-03-02T07:07:56;92775.00;;;13.70
41593;BMP180;28026;48.562;14.440;2024-03-02T07:10:27;92776.00;;;13.80
41593;BMP180;28026;48.562;14.440;2024-03-02T07:12:58;92779.00;;;13.80
41593;BMP180;28026;48.562;14.440;2024-03-02T07:15:28;92781.00;;;13.90
41593;BMP180;28026;48.562;14.440;2024-03-02T07:17:59;92775.00;;;14.00
41593;BMP180;28026;48.562;14.440;2024-03-02T07:20:30;92771.00;;;14.10
41593;BMP180;28026;48.562;14.440;2024-03-02T07:23:01;92767.00;;;14.10
41593;BMP180;28026;48.562;14.440;2024-03-02T07:25:32;92786.00;;;14.30
41593;BMP180;28026;48.562;14.440;2024-03-02T07:28:02;92784.00;;;14.40
41593;BMP180;28026;48.562;14.440;2024-03-02T07:30:34;92780.00;;;14.40
41593;BMP180;28026;48.562;14.440;2024-03-02T07:33:05;92783.00;;;14.50
41593;BMP180;28026;48.562;14.440;2024-03-02T07:35:36;92784.00;;;14.50
41593;BMP180;28026;48.562;14.440;2024-03-02T07:38:08;92779.00;;;14.60
41593;BMP180;28026;48.562;14.440;2024-03-02T07:40:39;92782.00;;;14.60
41593;BMP180;28026;48.562;14.440;2024-03-02T07:43:09;92785.00;;;14.60
41593;BMP180;28026;48.562;14.440;2024-03-02T07:45:40;92785.00;;;14.70
41593;BMP180;28026;48.562;14.440;2024-03-02T07:48:11;92782.00;;;14.70
41593;BMP180;28026;48.562;14.440;2024-03-02T07:50:42;92780.00;;;14.80
41593;BMP180;28026;48.562;14.440;2024-03-02T07:53:13;92781.00;;;14.80
41593;BMP180;28026;48.562;14.440;2024-03-02T07:55:45;92789.00;;;14.70
41593;BMP180;28026;48.562;14.440;2024-03-02T07:58:16;92787.00;;;14.70
41593;BMP180;28026;48.562;14.440;2024-03-02T08:00:48;92791.00;;;14.80
41593;BMP180;28026;48.562;14.440;2024-03-02T08:03:19;92785.00;;;14.90
41593;BMP180;28026;48.562;14.440;2024-03-02T08:05:50;92789.00;;;15.00
41593;BMP180;28026;48.562;14.440;2024-03-02T08:08:21;92794.00;;;15.20
41593;BMP180;28026;48.562;14.440;2024-03-02T08:10:52;92782.00;;;15.30
41593;BMP180;28026;48.562;14.440;2024-03-02T08:13:22;92786.00;;;15.40
41593;BMP180;28026;48.562;14.440;2024-03-02T08:15:53;92787.00;;;15.40
41593;BMP180;28026;48.562;14.440;2024-03-02T08:18:24;92799.00;;;15.50
41593;BMP180;28026;48.562;14.440;2024-03-02T08:20:55;92793.00;;;15.50
41593;BMP180;28026;48.562;14.440;2024-03-02T08:23:26;92782.00;;;15.60
41593;BMP180;28026;48.562;14.440;2024-03-02T08:25:57;92782.00;;;15.70
41593;BMP180;28026;48.562;14.440;2024-03-02T08:28:28;92786.00;;;15.80
41593;BMP180;28026;48.562;14.440;2024-03-02T08:30:59;92780.00;;;15.80
41593;BMP180;28026;48.562;14.440;2024-03-02T08:33:30;92783.00;;;15.90
41593;BMP180;28026;48.562;14.440;2024-03-02T08:36:01;92773.00;;;16.00
41593;BMP180;28026;48.562;14.440;2024-03-02T08:38:32;92766.00;;;16.10
41593;BMP180;28026;48.562;14.440;2024-03-02T08:41:03;92779.00;;;16.20
41593;BMP180;28026;48.562;14.440;2024-03-02T08:43:34;92779.00;;;16.30
41593;BMP180;28026;48.562;14.440;2024-03-02T08:46:05;92780.00;;;16.30
41593;BMP180;28026;48.562;14.440;2024-03-02T08:48:36;92771.00;;;16.20
41593;BMP180;28026;48.562;14.440;2024-03-02T08:51:07;92789.00;;;16.20
41593;BMP180;28026;48.562;14.440;2024-03-02T08:53:40;92782.00;;;16.20
41593;BMP180;28026;48.562;14.440;2024-03-02T08:56:11;92786.00;;;16.10
41593;BMP180;28026;48.562;14.440;2024-03-02T08:58:43;92787.00;;;16.10
41593;BMP180;28026;48.562;14.440;2024-03-02T09:01:14;92780.00;;;16.10
41593;BMP180;28026;48.562;14.440;2024-03-02T09:03:45;92785.00;;;16.20
41593;BMP180;28026;48.562;14.440;2024-03-02T09:06:16;92788.00;;;16.40
41593;BMP180;28026;48.562;14.440;2024-03-02T09:08:47;92785.00;;;16.50
41593;BMP180;28026;48.562;14.440;2024-03-02T09:11:20;92785.00;;;16.70
41593;BMP180;28026;48.562;14.440;2024-03-02T09:13:50;92796.00;;;16.90
41593;BMP180;28026;48.562;14.440;2024-03-02T09:16:21;92806.00;;;17.00
41593;BMP180;28026;48.562;14.440;2024-03-02T09:18:52;92796.00;;;17.00
41593;BMP180;28026;48.562;14.440;2024-03-02T09:21:23;92806.00;;;17.20
41593;BMP180;28026;48.562;14.440;2024-03-02T09:23:55;92808.00;;;17.30
41593;BMP180;28026;48.562;14.440;2024-03-02T09:26:27;92798.00;;;17.30
41593;BMP180;28026;48.562;14.440;2024-03-02T09:28:57;92810.00;;;17.60
41593;BMP180;28026;48.562;14.440;2024-03-02T09:31:28;92800.00;;;17.90
41593;BMP180;28026;48.562;14.440;2024-03-02T09:33:59;92806.00;;;18.10
41593;BMP180;28026;48.562;14.440;2024-03-02T09:36:30;92796.00;;;18.10
41593;BMP180;28026;48.562;14.440;2024-03-02T09:39:01;92793.00;;;18.10
41593;BMP180;28026;48.562;14.440;2024-03-02T09:41:34;92790.00;;;18.20
41593;BMP180;28026;48.562;14.440;2024-03-02T09:44:06;92798.00;;;18.30
41593;BMP180;28026;48.562;14.440;2024-03-02T09:46:37;92794.00;;;18.60
41593;BMP180;28026;48.562;14.440;2024-03-02T09:49:08;92794.00;;;18.80
41593;BMP180;28026;48.562;14.440;2024-03-02T09:51:39;92797.00;;;19.00
41593;BMP180;28026;48.562;14.440;2024-03-02T09:54:11;92803.00;;;19.20
41593;BMP180;28026;48.562;14.440;2024-03-02T09:56:42;92804.00;;;19.40
41593;BMP180;28026;48.562;14.440;2024-03-02T09:59:13;92810.00;;;19.30
41593;BMP180;28026;48.562;14.440;2024-03-02T10:01:59;92811.00;;;19.30
41593;BMP180;28026;48.562;14.440;2024-03-02T10:04:31;92808.00;;;19.20
41593;BMP180;28026;48.562;14.440;2024-03-02T10:07:15;92811.00;;;19.10
41593;BMP180;28026;48.562;14.440;2024-03-02T10:09:48;92798.00;;;19.10
41593;BMP180;28026;48.562;14.440;2024-03-02T10:12:19;92803.00;;;19.20
41593;BMP180;28026;48.562;14.440;2024-03-02T10:15:03;92802.00;;;19.50
41593;BMP180;28026;48.562;14.440;2024-03-02T10:17:35;92802.00;;;19.70
41593;BMP180;28026;48.562;14.440;2024-03-02T10:20:25;92799.00;;;19.50
41593;BMP180;28026;48.562;14.440;2024-03-02T10:23:12;92794.00;;;19.40
41593;BMP180;28026;48.562;14.440;2024-03-02T10:25:45;92793.00;;;19.40
41593;BMP180;28026;48.562;14.440;2024-03-02T10:28:15;92782.00;;;19.70
41593;BMP180;28026;48.562;14.440;2024-03-02T10:30:47;92790.00;;;20.00
41593;BMP180;28026;48.562;14.440;2024-03-02T10:33:19;92789.00;;;20.30
41593;BMP180;28026;48.562;14.440;2024-03-02T10:35:50;92795.00;;;20.50
41593;BMP180;28026;48.562;14.440;2024-03-02T10:38:22;92796.00;;;20.70
41593;BMP180;28026;48.562;14.440;2024-03-02T10:40:53;92791.00;;;20.50
41593;BMP180;28026;48.562;14.440;2024-03-02T10:43:25;92789.00;;;20.70
41593;BMP180;28026;48.562;14.440;2024-03-02T10:45:57;92784.00;;;21.00
41593;BMP180;28026;48.562;14.440;2024-03-02T10:48:29;92782.00;;;21.10
41593;BMP180;28026;48.562;14.440;2024-03-02T10:51:01;92791.00;;;21.00
41593;BMP180;28026;48.562;14.440;2024-03-02T10:53:33;92780.00;;;21.10
41593;BMP180;28026;48.562;14.440;2024-03-02T10:56:07;92788.00;;;21.30
41593;BMP180;28026;48.562;14.440;2024-03-02T10:58:40;92793.00;;;21.20
41593;BMP180;28026;48.562;14.440;2024-03-02T11:01:12;92786.00;;;21.10
41593;BMP180;28026;48.562;14.440;2024-03-02T11:03:44;92781.00;;;21.00
41593;BMP180;28026;48.562;14.440;2024-03-02T11:06:16;92787.00;;;20.90
41593;BMP180;28026;48.562;14.440;2024-03-02T11:08:48;92780.00;;;21.00
41593;BMP180;28026;48.562;14.440;2024-03-02T11:11:30;92780.00;;;21.00
41593;BMP180;28026;48.562;14.440;2024-03-02T11:14:07;92782.00;;;21.00
41593;BMP180;28026;48.562;14.440;2024-03-02T11:16:42;92776.00;;;21.00
41593;BMP180;28026;48.562;14.440;2024-03-02T11:19:16;92777.00;;;21.00
41593;BMP180;28026;48.562;14.440;2024-03-02T11:21:47;92768.00;;;21.10
41593;BMP180;28026;48.562;14.440;2024-03-02T11:26:55;92764.00;;;21.30
41593;BMP180;28026;48.562;14.440;2024-03-02T11:32:17;92765.00;;;21.60
41593;BMP180;28026;48.562;14.440;2024-03-02T11:34:51;92757.00;;;21.70
41593;BMP180;28026;48.562;14.440;2024-03-02T11:37:24;92761.00;;;22.00
41593;BMP180;28026;48.562;14.440;2024-03-02T11:39:55;92751.00;;;22.10
41593;BMP180;28026;48.562;14.440;2024-03-02T11:42:26;92746.00;;;22.10
41593;BMP180;28026;48.562;14.440;2024-03-02T11:44:57;92738.00;;;21.90
41593;BMP180;28026;48.562;14.440;2024-03-02T11:47:31;92739.00;;;21.80
41593;BMP180;28026;48.562;14.440;2024-03-02T11:50:03;92739.00;;;21.80
41593;BMP180;28026;48.562;14.440;2024-03-02T11:52:39;92739.00;;;21.70
41593;BMP180;28026;48.562;14.440;2024-03-02T11:55:12;92739.00;;;21.80
41593;BMP180;28026;48.562;14.440;2024-03-02T11:57:45;92736.00;;;21.90
41593;BMP180;28026;48.562;14.440;2024-03-02T12:00:17;92725.00;;;22.00
41593;BMP180;28026;48.562;14.440;2024-03-02T12:03:06;92727.00;;;22.20
41593;BMP180;28026;48.562;14.440;2024-03-02T12:05:39;92723.00;;;22.10
41593;BMP180;28026;48.562;14.440;2024-03-02T12:08:12;92723.00;;;22.20
41593;BMP180;28026;48.562;14.440;2024-03-02T12:10:56;92721.00;;;22.40
41593;BMP180;28026;48.562;14.440;2024-03-02T12:13:28;92726.00;;;22.40
41593;BMP180;28026;48.562;14.440;2024-03-02T12:15:59;92726.00;;;22.40
41593;BMP180;28026;48.562;14.440;2024-03-02T12:18:30;92732.00;;;22.50
41593;BMP180;28026;48.562;14.440;2024-03-02T12:21:00;92727.00;;;22.40
41593;BMP180;28026;48.562;14.440;2024-03-02T12:23:34;92720.00;;;22.40
41593;BMP180;28026;48.562;14.440;2024-03-02T12:26:06;92724.00;;;22.50
41593;BMP180;28026;48.562;14.440;2024-03-02T12:28:37;92719.00;;;22.50
41593;BMP180;28026;48.562;14.440;2024-03-02T12:31:08;92708.00;;;22.30
41593;BMP180;28026;48.562;14.440;2024-03-02T12:33:40;92714.00;;;22.10
41593;BMP180;28026;48.562;14.440;2024-03-02T12:36:13;92714.00;;;22.00
41593;BMP180;28026;48.562;14.440;2024-03-02T12:38:44;92714.00;;;22.00
41593;BMP180;28026;48.562;14.440;2024-03-02T12:41:16;92713.00;;;22.00
41593;BMP180;28026;48.562;14.440;2024-03-02T12:43:47;92712.00;;;22.10
41593;BMP180;28026;48.562;14.440;2024-03-02T12:46:17;92701.00;;;22.00
41593;BMP180;28026;48.562;14.440;2024-03-02T12:48:48;92704.00;;;22.10
41593;BMP180;28026;48.562;14.440;2024-03-02T12:51:19;92698.00;;;22.00
41593;BMP180;28026;48.562;14.440;2024-03-02T12:53:54;92701.00;;;21.90
41593;BMP180;28026;48.562;14.440;2024-03-02T12:56:26;92694.00;;;21.90
41593;BMP180;28026;48.562;14.440;2024-03-02T12:58:57;92690.00;;;21.80
41593;BMP180;28026;48.562;14.440;2024-03-02T13:01:30;92688.00;;;21.80
41593;BMP180;28026;48.562;14.440;2024-03-02T13:04:02;92695.00;;;21.80
41593;BMP180;28026;48.562;14.440;2024-03-02T13:06:34;92695.00;;;21.70
41593;BMP180;28026;48.562;14.440;2024-03-02T13:09:05;92689.00;;;21.70
41593;BMP180;28026;48.562;14.440;2024-03-02T13:11:39;92686.00;;;21.70
41593;BMP180;28026;48.562;14.440;2024-03-02T13:14:13;92689.00;;;21.70
41593;BMP180;28026;48.562;14.440;2024-03-02T13:16:44;92694.00;;;21.60
41593;BMP180;28026;48.562;14.440;2024-03-02T13:19:18;92684.00;;;21.60
41593;BMP180;28026;48.562;14.440;2024-03-02T13:21:52;92693.00;;;21.60
41593;BMP180;28026;48.562;14.440;2024-03-02T13:24:23;92685.00;;;21.70
41593;BMP180;28026;48.562;14.440;2024-03-02T13:26:58;92684.00;;;21.70
41593;BMP180;28026;48.562;14.440;2024-03-02T13:29:30;92691.00;;;21.70
41593;BMP180;28026;48.562;14.440;2024-03-02T13:32:01;92682.00;;;21.70
41593;BMP180;28026;48.562;14.440;2024-03-02T13:34:32;92672.00;;;21.70
41593;BMP180;28026;48.562;14.440;2024-03-02T13:37:03;92680.00;;;21.70
41593;BMP180;28026;48.562;14.440;2024-03-02T13:39:35;92680.00;;;21.70
41593;BMP180;28026;48.562;14.440;2024-03-02T13:42:12;92671.00;;;21.60
41593;BMP180;28026;48.562;14.440;2024-03-02T13:44:45;92686.00;;;21.50
41593;BMP180;28026;48.562;14.440;2024-03-02T13:47:18;92681.00;;;21.60
41593;BMP180;28026;48.562;14.440;2024-03-02T13:49:49;92679.00;;;21.70
41593;BMP180;28026;48.562;14.440;2024-03-02T13:52:20;92675.00;;;21.60
41593;BMP180;28026;48.562;14.440;2024-03-02T13:54:51;92681.00;;;21.50
41593;BMP180;28026;48.562;14.440;2024-03-02T13:57:22;92691.00;;;21.50
41593;BMP180;28026;48.562;14.440;2024-03-02T13:59:54;92695.00;;;21.50
41593;BMP180;28026;48.562;14.440;2024-03-02T14:02:25;92686.00;;;21.50
41593;BMP180;28026;48.562;14.440;2024-03-02T14:04:56;92690.00;;;21.70
41593;BMP180;28026;48.562;14.440;2024-03-02T14:07:27;92678.00;;;21.80
41593;BMP180;28026;48.562;14.440;2024-03-02T14:09:58;92677.00;;;21.80
41593;BMP180;28026;48.562;14.440;2024-03-02T14:12:29;92679.00;;;21.80
41593;BMP180;28026;48.562;14.440;2024-03-02T14:15:00;92687.00;;;22.00
41593;BMP180;28026;48.562;14.440;2024-03-02T14:17:32;92685.00;;;22.10
41593;BMP180;28026;48.562;14.440;2024-03-02T14:20:05;92679.00;;;22.00
41593;BMP180;28026;48.562;14.440;2024-03-02T14:22:36;92674.00;;;22.00
41593;BMP180;28026;48.562;14.440;2024-03-02T14:25:08;92682.00;;;22.00
41593;BMP180;28026;48.562;14.440;2024-03-02T14:27:39;92685.00;;;22.00
41593;BMP180;28026;48.562;14.440;2024-03-02T14:30:10;92684.00;;;22.10
41593;BMP180;28026;48.562;14.440;2024-03-02T14:32:41;92673.00;;;22.20